Flight Track Log - Related Links

Times and Time Zones

All times are in EDT time to prevent confusion due to time zone crossing. See the N966QS flight status page for this flight to view local times or setup timezone preferences in your user account.

Time Position Orientation Groundspeed Altitude Reporting Facility
EDT Latitude Longitude Course Direction KTS MPH feet Rate Location/Type
Sun 05:19:20 PM 29.9344 -94.0175 80° East 174 200 1,100  Level Houston Center
Sun 05:20:38 PM 29.9467 -93.9339 80° East 236 272 6,500 3,771 Climbing Houston Center
Sun 05:21:40 PM 30.0147 -93.9147 14° North 280 322 9,900 1,694 Climbing Houston Center
Sun 05:22:42 PM 30.1233 -93.9297 353° North 372 428 10,000 194 Climbing Houston Center
Sun 05:23:44 PM 30.2367 -93.9450 353° North 401 461 10,300 484 Climbing Houston Center
Sun 05:24:46 PM 30.3519 -93.9592 354° North 409 471 11,000 339 Climbing Houston Center
Sun 05:25:48 PM 30.4694 -93.9742 354° North 416 479 11,000 484 Level Houston Center
Sun 05:26:50 PM 30.5831 -94.0003 349° North 418 481 12,000 1,258 Climbing Houston Center
Sun 05:27:52 PM 30.6839 -94.0681 330° Northwest 417 480 13,600 912 Climbing Houston Center
Sun 05:28:55 PM 30.8047 -94.1539 329° Northwest 425 489 13,900 672 Climbing Houston Center
Sun 05:29:57 PM 30.9003 -94.2208 329° Northwest 431 496 15,000 1,645 Climbing Houston Center
Sun 05:30:59 PM 30.9969 -94.2892 329° Northwest 412 474 17,300 2,032 Climbing Houston Center
Sun 05:32:01 PM 31.1075 -94.3683 328° Northwest 394 453 19,200 1,597 Climbing Houston Center
Sun 05:33:03 PM 31.2044 -94.4372 329° Northwest 408 470 20,600 1,355 Climbing Houston Center
Sun 05:34:05 PM 31.3017 -94.5061 329° Northwest 413 475 22,000 1,258 Climbing Houston Center
Sun 05:35:07 PM 31.4017 -94.5783 328° Northwest 428 493 23,200 1,306 Climbing Houston Center
Sun 05:36:09 PM 31.5269 -94.6661 329° Northwest 441 507 24,700 1,306 Climbing Houston Center
Sun 05:37:11 PM 31.6331 -94.7442 328° Northwest 451 519 25,900 1,113 Climbing Houston Center
Sun 05:38:13 PM 31.7417 -94.8231 328° Northwest 459 528 27,000 939 Climbing Houston Center
Sun 05:39:06 PM 31.8375 -94.8922 328° Northwest 463 533 27,700 531 Climbing Fort Worth Center
Sun 05:40:06 PM 31.9497 -94.9772 327° Northwest 468 539 28,000 150 Climbing Fort Worth Center
Sun 05:41:06 PM 32.0683 -95.0622 329° Northwest 487 560 28,000 300 Level Fort Worth Center
Sun 05:42:06 PM 32.1889 -95.1525 328° Northwest 500 575 28,600 850 Climbing Fort Worth Center
Sun 05:43:06 PM 32.3178 -95.2453 329° Northwest 500 575 29,700 1,050 Climbing Fort Worth Center
Sun 05:44:06 PM 32.4342 -95.3311 328° Northwest 500 575 30,700 1,000 Climbing Fort Worth Center
Sun 05:45:06 PM 32.5544 -95.4169 329° Northwest 505 581 31,700 1,000 Climbing Fort Worth Center
Sun 05:46:06 PM 32.6708 -95.5033 328° Northwest 505 581 32,700 950 Climbing Fort Worth Center
Sun 05:47:06 PM 32.7889 -95.5922 328° Northwest 500 575 33,600 950 Climbing Fort Worth Center
Sun 05:48:06 PM 32.9069 -95.6764 329° Northwest 500 575 34,600 900 Climbing Fort Worth Center
Sun 05:49:06 PM 33.0250 -95.7658 328° Northwest 500 575 35,400 650 Climbing Fort Worth Center
Sun 05:50:06 PM 33.1411 -95.8556 327° Northwest 505 581 35,900 300 Climbing Fort Worth Center
Sun 05:51:06 PM 33.2611 -95.9453 328° Northwest 505 581 36,000 50 Climbing Fort Worth Center
Sun 05:52:06 PM 33.3811 -96.0328 329° Northwest 505 581 36,000  Level Fort Worth Center
Sun 05:53:06 PM 33.4989 -96.1231 327° Northwest 505 581 36,000  Level Fort Worth Center
Sun 05:54:06 PM 33.6083 -96.2064 328° Northwest 505 581 36,000  Level Fort Worth Center
Sun 05:55:06 PM 33.7281 -96.2972 328° Northwest 505 581 36,000 -500 Level Fort Worth Center
Sun 05:56:06 PM 33.8458 -96.3881 327° Northwest 505 581 35,000 -1,750 Descending Fort Worth Center
Sun 05:57:06 PM 33.9675 -96.4819 327° Northwest 505 581 32,500 500 Descending Fort Worth Center
Sun 05:58:06 PM 34.0914 -96.5758 328° Northwest 511 588 36,000 -2,800 Climbing Fort Worth Center
Sun 05:59:06 PM 34.2172 -96.6853 324° Northwest 511 588 26,900 -5,700 Descending Fort Worth Center
Sun 06:00:06 PM 34.3344 -96.7722 329° Northwest 506 582 24,600 -2,300 Descending Fort Worth Center
Sun 06:01:06 PM 34.4456 -96.8594 327° Northwest 500 575 22,300 -2,250 Descending Fort Worth Center
Sun 06:02:06 PM 34.5542 -96.9419 328° Northwest 487 560 20,100 -2,200 Descending Fort Worth Center
Sun 06:03:06 PM 34.6589 -97.0272 326° Northwest 468 539 17,900 -2,100 Descending Fort Worth Center
Sun 06:04:06 PM 34.7592 -97.1028 328° Northwest 449 517 15,900 -2,050 Descending Fort Worth Center
Sun 06:05:06 PM 34.8617 -97.1833 327° Northwest 443 510 13,800 -2,050 Descending Fort Worth Center
Sun 06:06:06 PM 34.9556 -97.2564 327° Northwest 429 494 11,800 -1,800 Descending Fort Worth Center
Sun 06:07:06 PM 35.0328 -97.3172 327° Northwest 382 440 10,200 -1,500 Descending Fort Worth Center
Sun 06:08:06 PM 35.1039 -97.3731 327° Northwest 332 382 8,800 -1,400 Descending Fort Worth Center
Sun 06:09:06 PM 35.1725 -97.4289 326° Northwest 302 348 7,400 -1,300 Descending Fort Worth Center
Sun 06:10:06 PM 35.2414 -97.4822 328° Northwest 297 342 6,200 -1,100 Descending Fort Worth Center
Sun 06:11:06 PM 35.3122 -97.5153 339° North 284 327 5,200 -1,050 Descending Fort Worth Center
Sun 06:12:06 PM 35.3728 -97.5333 346° North 270 311 4,100 -700 Descending Fort Worth Center
Sun 06:13:06 PM 35.4333 -97.5383 356° North 242 278 3,800 -850 Descending Fort Worth Center
Sun 06:14:06 PM 35.4519 -97.5792 299° West 153 176 2,400 -1,050 Descending Fort Worth Center
Sun 06:15:06 PM 35.4228 -97.5919 200° South 69 79 1,700 -500 Descending Fort Worth Center
Sun 06:16:06 PM 35.3978 -97.6019 198° South 73 84 1,400 -300 Descending Fort Worth Center

Login

Don't have an account? Register now (free) for customized features, flight alerts, and more!